createdAt,value
2019-06-01T00:00:26.904Z,527.9
2019-06-01T00:01:28.803Z,528.2
2019-06-01T00:02:30.955Z,527.8
2019-06-01T00:03:33.112Z,528.1
2019-06-01T00:04:35.550Z,527.6
2019-06-01T00:05:39.054Z,527.9
2019-06-01T00:06:44.773Z,528
2019-06-01T00:07:49.451Z,527.9
2019-06-01T00:08:51.482Z,527.9
2019-06-01T00:09:53.954Z,527.8
2019-06-01T00:10:55.840Z,528
2019-06-01T00:11:57.984Z,528
2019-06-01T00:13:00.415Z,528.4
2019-06-01T00:14:02.850Z,528.5
2019-06-01T00:15:05.006Z,528.4
2019-06-01T00:16:07.177Z,528.1
2019-06-01T00:17:09.349Z,528.3
2019-06-01T00:18:11.531Z,528.5
2019-06-01T00:19:13.971Z,528.1
2019-06-01T00:20:16.091Z,528.5
2019-06-01T00:21:19.074Z,528.5
2019-06-01T00:22:21.236Z,528.7
2019-06-01T00:23:23.663Z,528.8
2019-06-01T00:24:26.094Z,529.1
2019-06-01T00:25:28.527Z,529.1
2019-06-01T00:26:30.684Z,529.1
2019-06-01T00:27:32.839Z,529.2
2019-06-01T00:28:35.256Z,529.8
2019-06-01T00:29:37.422Z,529.5
2019-06-01T00:30:39.325Z,529
2019-06-01T00:31:45.869Z,529.5
2019-06-01T00:32:51.310Z,529.8
2019-06-01T00:33:53.548Z,529.5
2019-06-01T00:34:55.674Z,529.5
2019-06-01T00:35:58.106Z,529.8
2019-06-01T00:37:00.538Z,529.9
2019-06-01T00:38:02.995Z,529.7
2019-06-01T00:39:05.441Z,529.9
2019-06-01T00:40:07.952Z,529.9
2019-06-01T00:41:10.372Z,529.8
2019-06-01T00:42:12.899Z,530.1
2019-06-01T00:43:15.087Z,530.4
2019-06-01T00:44:17.518Z,530.2
2019-06-01T00:45:19.948Z,530.4
2019-06-01T00:46:21.821Z,530.4
2019-06-01T00:47:23.990Z,530.7
2019-06-01T00:48:26.408Z,530.7
2019-06-01T00:49:28.278Z,530.9
2019-06-01T00:50:30.714Z,530.9
2019-06-01T00:51:33.266Z,530.6
2019-06-01T00:52:35.424Z,531.2
2019-06-01T00:53:37.846Z,531.2
2019-06-01T00:54:40.280Z,530.9
2019-06-01T00:55:43.718Z,531.4
2019-06-01T00:56:49.572Z,530.8
2019-06-01T00:57:54.505Z,531.2
2019-06-01T00:58:56.662Z,531.1
2019-06-01T00:59:58.821Z,531.1
2019-06-01T01:01:01.240Z,531.5
2019-06-01T01:02:03.676Z,531.3
2019-06-01T01:03:05.823Z,531.2
2019-06-01T01:04:08.250Z,531.4
2019-06-01T01:05:10.677Z,531.3
2019-06-01T01:06:13.092Z,531.3
2019-06-01T01:07:15.524Z,531.5
2019-06-01T01:08:17.950Z,531.5
2019-06-01T01:09:20.368Z,531.3
2019-06-01T01:10:22.530Z,531.2
2019-06-01T01:11:24.674Z,531.3
2019-06-01T01:12:27.116Z,531.1
2019-06-01T01:13:29.316Z,531.2
2019-06-01T01:14:31.466Z,530.9
2019-06-01T01:15:33.892Z,530.7
2019-06-01T01:16:36.055Z,530.6
2019-06-01T01:17:39.099Z,530.6
2019-06-01T01:18:41.526Z,531.1
2019-06-01T01:19:43.950Z,530.6
2019-06-01T01:20:48.536Z,530.5
2019-06-01T01:21:54.099Z,530.8
2019-06-01T01:22:57.872Z,531.1
2019-06-01T01:24:00.032Z,531
2019-06-01T01:25:02.478Z,531.2
2019-06-01T01:26:05.019Z,531.1
2019-06-01T01:27:07.465Z,531
2019-06-01T01:28:09.878Z,531.1
2019-06-01T01:29:11.746Z,530.9
2019-06-01T01:30:14.172Z,531.1
2019-06-01T01:31:16.604Z,531
2019-06-01T01:32:18.758Z,531.3
2019-06-01T01:33:21.216Z,531.1
2019-06-01T01:34:23.385Z,531.4
2019-06-01T01:35:25.814Z,531.2
2019-06-01T01:36:28.234Z,531.2
2019-06-01T01:37:30.670Z,531.4
2019-06-01T01:38:32.821Z,531.4
2019-06-01T01:39:34.986Z,531
2019-06-01T01:40:37.149Z,531.1
2019-06-01T01:41:39.576Z,531.5
2019-06-01T01:42:42.005Z,531.3
2019-06-01T01:43:44.166Z,531.3
2019-06-01T01:44:46.591Z,531
2019-06-01T01:45:51.152Z,531.2
2019-06-01T01:46:56.880Z,531.1
2019-06-01T01:48:02.042Z,531.1
2019-06-01T01:49:04.598Z,530.9
2019-06-01T01:50:06.762Z,530.9
2019-06-01T01:51:09.184Z,531.3
2019-06-01T01:52:11.615Z,531.3
2019-06-01T01:53:14.045Z,531.1
2019-06-01T01:54:16.485Z,531.1
2019-06-01T01:55:18.648Z,531.1
2019-06-01T01:56:21.068Z,531.3
2019-06-01T01:57:23.227Z,531.3
2019-06-01T01:58:25.654Z,531.1
2019-06-01T01:59:27.547Z,531
2019-06-01T02:00:29.965Z,531.4
2019-06-01T02:01:32.402Z,531.3
2019-06-01T02:02:34.266Z,531.5
2019-06-01T02:03:36.395Z,531.5
2019-06-01T02:04:38.822Z,531.6
2019-06-01T02:05:40.706Z,531.3
2019-06-01T02:06:43.132Z,531.2
2019-06-01T02:07:46.136Z,531.7
2019-06-01T02:08:48.296Z,531.4
2019-06-01T02:09:53.222Z,531.6
2019-06-01T02:10:57.983Z,531.3
2019-06-01T02:12:02.928Z,531.9
2019-06-01T02:13:05.074Z,532.1
2019-06-01T02:14:07.506Z,532
2019-06-01T02:15:09.930Z,532
2019-06-01T02:16:12.087Z,531.9
2019-06-01T02:17:14.514Z,532.1
2019-06-01T02:18:16.946Z,531.8
2019-06-01T02:19:19.367Z,532.1
2019-06-01T02:20:21.514Z,531.9
2019-06-01T02:21:23.655Z,532
2019-06-01T02:22:25.833Z,531.9
2019-06-01T02:23:28.004Z,532.3
2019-06-01T02:24:30.458Z,532.1
2019-06-01T02:25:32.312Z,532.2
2019-06-01T02:26:34.193Z,532.7
2019-06-01T02:27:36.628Z,532.5
2019-06-01T02:28:38.789Z,532.2
2019-06-01T02:29:41.227Z,532.4
2019-06-01T02:30:43.662Z,532.2
2019-06-01T02:31:45.545Z,532.3
2019-06-01T02:32:47.694Z,532.2
2019-06-01T02:33:50.116Z,532.3
2019-06-01T02:34:54.136Z,532.3
2019-06-01T02:37:07.921Z,532.5
2019-06-01T02:38:10.096Z,532.3
2019-06-01T02:39:12.542Z,532.4
2019-06-01T02:40:14.836Z,532.4
2019-06-01T02:41:17.267Z,532.5
2019-06-01T02:42:19.434Z,532.6
2019-06-01T02:43:21.313Z,532.6
2019-06-01T02:44:23.732Z,532.8
2019-06-01T02:45:26.164Z,532.5
2019-06-01T02:46:28.299Z,532.7
2019-06-01T02:47:30.726Z,533
2019-06-01T02:48:33.236Z,532.7
2019-06-01T02:49:35.742Z,533
2019-06-01T02:50:38.259Z,532.9
2019-06-01T02:51:40.673Z,532.6
2019-06-01T02:52:43.116Z,532.7
2019-06-01T02:53:45.271Z,532.9
2019-06-01T02:54:47.416Z,532.9
2019-06-01T02:55:49.617Z,532.4
2019-06-01T02:56:52.049Z,532.9
2019-06-01T02:57:54.210Z,532.3
2019-06-01T02:58:58.232Z,532.6
2019-06-01T03:00:02.695Z,532.7
2019-06-01T03:01:07.995Z,532.5
2019-06-01T03:03:15.396Z,532.6
2019-06-01T03:04:17.841Z,532.4
2019-06-01T03:05:19.982Z,532.3
2019-06-01T03:06:22.133Z,532.3
2019-06-01T03:07:24.284Z,532.4
2019-06-01T03:08:26.163Z,532.1
2019-06-01T03:09:28.594Z,532.1
2019-06-01T03:10:31.075Z,532.1
2019-06-01T03:11:33.502Z,532.2
2019-06-01T03:12:35.662Z,532.2
2019-06-01T03:13:37.815Z,532.6
2019-06-01T03:14:39.973Z,532.6
2019-06-01T03:15:41.843Z,532.8
2019-06-01T03:16:44.303Z,532.5
2019-06-01T03:17:46.456Z,532.4
2019-06-01T03:18:48.373Z,532.5
2019-06-01T03:19:50.564Z,532.2
2019-06-01T03:20:52.990Z,532.4
2019-06-01T03:21:55.416Z,531.9
2019-06-01T03:22:57.832Z,532.2
2019-06-01T03:24:03.797Z,532
2019-06-01T03:25:08.514Z,532.2
2019-06-01T03:26:12.315Z,532.2
2019-06-01T03:27:14.315Z,532.2
2019-06-01T03:28:16.747Z,532.2
2019-06-01T03:29:19.346Z,532.1
2019-06-01T03:30:21.224Z,532.1
2019-06-01T03:31:23.379Z,531.8
2019-06-01T03:33:30.783Z,532.4
2019-06-01T03:34:33.206Z,532.1
2019-06-01T03:35:35.636Z,532.4
2019-06-01T03:36:38.055Z,532
2019-06-01T03:37:40.203Z,532.4
2019-06-01T03:38:42.076Z,532.1
2019-06-01T03:39:44.202Z,532.3
2019-06-01T03:40:46.622Z,532.1
2019-06-01T03:41:48.781Z,532.2
2019-06-01T03:42:51.215Z,532.2
2019-06-01T03:43:53.067Z,532.2
2019-06-01T03:44:55.525Z,532
2019-06-01T03:45:57.396Z,532.1
2019-06-01T03:46:59.628Z,532.4
2019-06-01T03:48:04.557Z,532.5
2019-06-01T03:49:09.753Z,532
2019-06-01T03:50:13.227Z,532
2019-06-01T03:51:15.702Z,532.1
2019-06-01T03:52:18.130Z,531.8
2019-06-01T03:53:20.557Z,532.3
2019-06-01T03:54:22.976Z,532.4
2019-06-01T03:55:25.124Z,532.5
2019-06-01T03:56:27.282Z,532.2
2019-06-01T03:57:29.719Z,532.8
2019-06-01T03:58:31.592Z,532.5
2019-06-01T03:59:33.740Z,532.5
2019-06-01T04:00:35.877Z,532.4
2019-06-01T04:01:38.020Z,532.7
2019-06-01T04:02:40.451Z,532.7
2019-06-01T04:03:42.884Z,532.5
2019-06-01T04:04:45.048Z,532.1
2019-06-01T04:05:47.471Z,532.1
2019-06-01T04:06:49.659Z,532.2
2019-06-01T04:07:51.813Z,531.9
2019-06-01T04:08:53.974Z,532.5
2019-06-01T04:09:56.420Z,532.3
2019-06-01T04:10:58.854Z,532.6
2019-06-01T04:12:03.478Z,532.7
2019-06-01T04:13:08.066Z,532.6
2019-06-01T04:14:12.759Z,532.6
2019-06-01T04:16:19.900Z,532.4
2019-06-01T04:17:22.348Z,532.7
2019-06-01T04:18:24.776Z,532.4
2019-06-01T04:19:27.214Z,532.6
2019-06-01T04:20:29.644Z,532.9
2019-06-01T04:21:31.798Z,533
2019-06-01T04:22:33.994Z,533.4
2019-06-01T04:23:38.182Z,532.7
2019-06-01T04:24:40.600Z,532.8
2019-06-01T04:25:43.036Z,532.8
2019-06-01T04:26:45.198Z,532.7
2019-06-01T04:27:47.370Z,532.8
2019-06-01T04:28:49.861Z,532.4
2019-06-01T04:29:52.302Z,532.7
2019-06-01T04:30:54.503Z,532.9
2019-06-01T04:31:56.924Z,532.3
2019-06-01T04:32:59.380Z,532.8
2019-06-01T04:34:02.480Z,532.9
2019-06-01T04:35:09.553Z,532.6
2019-06-01T04:36:14.023Z,532.6
2019-06-01T04:37:16.463Z,532.7
2019-06-01T04:38:18.332Z,532.7
2019-06-01T04:39:20.765Z,532.4
2019-06-01T04:40:23.192Z,532.5
2019-06-01T04:41:25.336Z,532.3
2019-06-01T04:42:27.763Z,532.6
2019-06-01T04:43:29.657Z,532.5
2019-06-01T04:44:32.081Z,532.6
2019-06-01T04:45:34.255Z,532.5
2019-06-01T04:46:36.689Z,532.2
2019-06-01T04:47:39.123Z,532
2019-06-01T04:48:41.558Z,532.3
2019-06-01T04:49:43.722Z,532.1
2019-06-01T04:50:45.873Z,532.4
2019-06-01T04:51:48.309Z,532.4
2019-06-01T04:52:50.746Z,532.6
2019-06-01T04:53:52.652Z,532.4
2019-06-01T04:54:55.082Z,532.3
2019-06-01T04:55:57.244Z,532.6
2019-06-01T04:56:59.705Z,532.1
2019-06-01T04:58:01.876Z,532.3
2019-06-01T04:59:06.805Z,532.5
2019-06-01T05:01:15.626Z,532.3
2019-06-01T05:02:18.065Z,532.5
2019-06-01T05:03:20.495Z,532.3
2019-06-01T05:04:22.638Z,532.5
2019-06-01T05:05:25.071Z,531.8
2019-06-01T05:06:27.241Z,532
2019-06-01T05:07:29.413Z,532.2
2019-06-01T05:08:31.854Z,532.2
2019-06-01T05:09:33.748Z,532.3
2019-06-01T05:10:35.908Z,532.4
2019-06-01T05:11:38.367Z,532.4
2019-06-01T05:12:40.805Z,532.2
2019-06-01T05:13:43.247Z,532.4
2019-06-01T05:14:45.684Z,532.1
2019-06-01T05:15:47.856Z,532
2019-06-01T05:16:50.328Z,532
2019-06-01T05:17:52.246Z,532.1
2019-06-01T05:18:54.676Z,532.3
2019-06-01T05:19:57.110Z,531.8
2019-06-01T05:20:59.273Z,532.2
2019-06-01T05:22:01.727Z,532.4
2019-06-01T05:23:03.897Z,532.2
2019-06-01T05:24:08.802Z,532.2
2019-06-01T05:26:18.145Z,532.2
2019-06-01T05:27:20.576Z,531.9
2019-06-01T05:28:22.999Z,532.1
2019-06-01T05:29:25.457Z,532.3
2019-06-01T05:30:27.863Z,532
2019-06-01T05:31:30.304Z,532.4
2019-06-01T05:32:32.746Z,532.2
2019-06-01T05:34:39.882Z,532.3
2019-06-01T05:35:42.326Z,531.8
2019-06-01T05:36:44.761Z,532
2019-06-01T05:37:47.179Z,531.9
2019-06-01T05:38:49.213Z,531.9
2019-06-01T05:39:51.665Z,532.2
2019-06-01T05:40:54.101Z,532.2
2019-06-01T05:41:56.531Z,532.2
2019-06-01T05:42:58.668Z,532.6
2019-06-01T05:44:01.096Z,532.4
2019-06-01T05:45:03.274Z,532.5
2019-06-01T05:46:05.705Z,532.8
2019-06-01T05:47:08.133Z,533
2019-06-01T05:49:18.575Z,533
2019-06-01T05:50:21.226Z,532.9
2019-06-01T05:51:24.475Z,533.3
2019-06-01T05:52:26.335Z,533.4
2019-06-01T05:53:28.486Z,533.4
2019-06-01T05:54:30.916Z,533.2
2019-06-01T05:55:33.106Z,533.3
2019-06-01T05:56:35.523Z,533.3
2019-06-01T05:57:37.943Z,533.2
2019-06-01T05:58:40.395Z,533.2
2019-06-01T05:59:42.633Z,533.5
2019-06-01T06:00:45.090Z,533.3
2019-06-01T06:01:47.522Z,533.5
2019-06-01T06:02:49.691Z,533.2
2019-06-01T06:03:52.125Z,533
2019-06-01T06:04:56.164Z,533.3
2019-06-01T06:05:58.595Z,533.1
2019-06-01T06:07:00.749Z,533.1
2019-06-01T06:08:03.177Z,533.2
2019-06-01T06:09:05.588Z,533
2019-06-01T06:10:08.011Z,533
2019-06-01T06:11:12.830Z,532.7
2019-06-01T06:12:19.352Z,532.5
2019-06-01T06:13:23.102Z,532.7
2019-06-01T06:14:25.556Z,532.6
2019-06-01T06:15:27.965Z,532.9
2019-06-01T06:16:30.391Z,532.7
2019-06-01T06:17:32.822Z,532.5
2019-06-01T06:18:35.246Z,532.6
2019-06-01T06:19:37.680Z,532.7
2019-06-01T06:20:39.856Z,532.9
2019-06-01T06:21:42.290Z,532.8
2019-06-01T06:22:44.788Z,533
2019-06-01T06:23:47.241Z,532.9
2019-06-01T06:24:49.419Z,532.8
2019-06-01T06:25:51.847Z,533
2019-06-01T06:26:54.266Z,533.4
2019-06-01T06:27:56.162Z,533.1
2019-06-01T06:28:59.049Z,533.2
2019-06-01T06:30:01.515Z,533.3
2019-06-01T06:31:03.950Z,533.1
2019-06-01T06:33:15.122Z,533.6
2019-06-01T06:34:21.353Z,533.5
2019-06-01T06:35:24.856Z,533.2
2019-06-01T06:36:27.023Z,533.3
2019-06-01T06:37:29.456Z,533.2
2019-06-01T06:38:31.608Z,533.6
2019-06-01T06:39:33.761Z,533.6
2019-06-01T06:40:35.926Z,533.5
2019-06-01T06:41:38.085Z,533.2
2019-06-01T06:42:39.976Z,533.8
2019-06-01T06:43:42.425Z,533.3
2019-06-01T06:44:45.450Z,533.6
2019-06-01T06:45:47.921Z,533.7
2019-06-01T06:46:50.346Z,533.2
2019-06-01T06:47:52.208Z,533.6
2019-06-01T06:48:54.641Z,533.4
2019-06-01T06:49:56.513Z,533.2
2019-06-01T06:50:58.928Z,533.3
2019-06-01T06:52:01.369Z,533.4
2019-06-01T06:53:03.814Z,533.4
2019-06-01T06:54:06.000Z,533.4
2019-06-01T06:55:08.143Z,533.5
2019-06-01T06:56:10.276Z,533.2
2019-06-01T06:57:12.697Z,533.6
2019-06-01T06:58:14.566Z,533.3
2019-06-01T06:59:18.423Z,533.3
2019-06-01T07:00:23.168Z,533.5
2019-06-01T07:01:27.995Z,532.9
2019-06-01T07:02:30.428Z,533.5
2019-06-01T07:03:32.864Z,533.5
2019-06-01T07:04:35.036Z,533.8
2019-06-01T07:05:37.461Z,533.8
2019-06-01T07:06:39.960Z,533.5
2019-06-01T07:07:41.834Z,533.4
2019-06-01T07:08:44.273Z,533.7
2019-06-01T07:09:46.161Z,533.7
2019-06-01T07:10:48.597Z,533.9
2019-06-01T07:11:51.051Z,533.9
2019-06-01T07:12:53.210Z,533.7
2019-06-01T07:13:55.631Z,534
2019-06-01T07:14:58.274Z,533.7
2019-06-01T07:17:07.141Z,533.5
2019-06-01T07:18:09.687Z,533.7
2019-06-01T07:19:11.825Z,533.9
2019-06-01T07:20:14.300Z,533.5
2019-06-01T07:21:16.713Z,533.6
2019-06-01T07:22:21.639Z,533.7
2019-06-01T07:23:26.400Z,533.4
2019-06-01T07:24:29.879Z,533.6
2019-06-01T07:25:33.504Z,533.4
2019-06-01T07:26:35.940Z,533.3
2019-06-01T07:27:38.390Z,533.3
2019-06-01T07:28:40.554Z,533.1
2019-06-01T07:29:42.709Z,532.6
2019-06-01T07:31:49.843Z,533
2019-06-01T07:32:52.302Z,533.1
2019-06-01T07:33:54.745Z,532.8
2019-06-01T07:36:03.595Z,532.9
2019-06-01T07:37:06.034Z,532.7
2019-06-01T07:38:08.479Z,532.8
2019-06-01T07:39:10.921Z,532.8
2019-06-01T07:41:18.071Z,532.9
2019-06-01T07:43:28.937Z,533.6
2019-06-01T07:44:31.445Z,533.5
2019-06-01T07:46:38.855Z,533.5
2019-06-01T07:47:40.472Z,533.7
2019-06-01T07:48:42.550Z,533.9
2019-06-01T07:49:44.681Z,534.2
2019-06-01T07:50:46.835Z,534.1
2019-06-01T07:51:49.131Z,534
2019-06-01T07:52:51.707Z,534.4
2019-06-01T07:53:54.125Z,534
2019-06-01T07:54:56.551Z,534.1
2019-06-01T07:55:58.718Z,534.2
2019-06-01T07:57:00.864Z,534.3
2019-06-01T07:58:03.033Z,534.3
2019-06-01T07:59:05.463Z,533.9
2019-06-01T08:00:07.975Z,534
2019-06-01T08:01:10.155Z,533.9
2019-06-01T08:02:12.671Z,533.9
2019-06-01T08:03:15.175Z,534.2
2019-06-01T08:04:17.318Z,534
2019-06-01T08:05:19.747Z,534.5
2019-06-01T08:07:33.993Z,534.2
2019-06-01T08:08:35.871Z,534.4
2019-06-01T08:09:38.029Z,534.6
2019-06-01T08:10:40.461Z,534.8
2019-06-01T08:11:42.900Z,534.4
2019-06-01T08:12:45.333Z,535
2019-06-01T08:13:47.858Z,534.6
2019-06-01T08:14:50.272Z,534.7
2019-06-01T08:15:52.145Z,534.8
2019-06-01T08:16:54.713Z,534.8
2019-06-01T08:17:57.253Z,534.5
2019-06-01T08:18:59.354Z,534.8
2019-06-01T08:20:01.881Z,534.8
2019-06-01T08:21:04.036Z,535
2019-06-01T08:22:06.667Z,534.6
2019-06-01T08:23:08.863Z,535
2019-06-01T08:24:11.500Z,535
2019-06-01T08:25:13.731Z,535.4
2019-06-01T08:26:16.013Z,534.8
2019-06-01T08:27:20.305Z,535
2019-06-01T08:28:24.893Z,535
2019-06-01T08:29:31.179Z,534.7
2019-06-01T08:30:34.641Z,535.3
2019-06-01T08:31:36.798Z,535.2
2019-06-01T08:32:38.963Z,535.2
2019-06-01T08:33:41.130Z,534.9
2019-06-01T08:34:43.555Z,534.8
2019-06-01T08:35:45.983Z,535.3
2019-06-01T08:36:48.153Z,535.4
2019-06-01T08:37:50.316Z,535.6
2019-06-01T08:38:52.753Z,535.3
2019-06-01T08:39:54.649Z,535.4
2019-06-01T08:40:57.067Z,535.1
2019-06-01T08:41:59.241Z,535.4
2019-06-01T08:43:01.836Z,535.5
2019-06-01T08:44:04.395Z,535.6
2019-06-01T08:45:06.938Z,535.5
2019-06-01T08:46:09.402Z,536.1
2019-06-01T08:47:11.903Z,535.9
2019-06-01T08:48:14.107Z,536
2019-06-01T08:49:16.626Z,536.2
2019-06-01T08:50:19.126Z,536.4
2019-06-01T08:51:21.305Z,536.5
2019-06-01T08:52:25.941Z,536.8
2019-06-01T08:53:30.501Z,537.1
2019-06-01T08:54:35.422Z,536.8
2019-06-01T08:55:37.594Z,536.4
2019-06-01T08:56:39.485Z,536.7
2019-06-01T08:57:41.923Z,536.5
2019-06-01T08:58:44.074Z,536.8
2019-06-01T08:59:46.765Z,536.8
2019-06-01T09:00:49.280Z,536.8
2019-06-01T09:01:51.725Z,536.6
2019-06-01T09:02:54.175Z,537
2019-06-01T09:03:56.606Z,536.7
2019-06-01T09:04:58.495Z,536.9
2019-06-01T09:06:00.926Z,537
2019-06-01T09:07:03.388Z,537.4
2019-06-01T09:08:05.876Z,537.2
2019-06-01T09:10:14.739Z,537.3
2019-06-01T09:11:17.172Z,536.7
2019-06-01T09:12:19.654Z,536.8
2019-06-01T09:13:22.079Z,536.8
2019-06-01T09:14:25.690Z,536.9
2019-06-01T09:15:35.440Z,536.8
2019-06-01T09:16:37.874Z,537.2
2019-06-01T09:17:40.060Z,536.9
2019-06-01T09:18:42.491Z,537.3
2019-06-01T09:19:44.921Z,537.2
2019-06-01T09:20:47.074Z,537.3
2019-06-01T09:21:49.506Z,537.4
2019-06-01T09:22:51.661Z,537.9
2019-06-01T09:23:53.815Z,537.5
2019-06-01T09:24:56.281Z,537.6
2019-06-01T09:25:58.763Z,537.8
2019-06-01T09:27:01.198Z,537.7
2019-06-01T09:28:03.617Z,537.8
2019-06-01T09:29:05.780Z,537.5
2019-06-01T09:30:08.214Z,538
2019-06-01T09:31:10.649Z,537.6
2019-06-01T09:32:13.240Z,537.6
2019-06-01T09:33:15.398Z,537.3
2019-06-01T09:34:17.559Z,537.2
2019-06-01T09:35:19.984Z,537.8
2019-06-01T09:36:21.878Z,537.7
2019-06-01T09:37:24.300Z,537.9
2019-06-01T09:38:27.517Z,537.2
2019-06-01T09:39:33.406Z,537.9
2019-06-01T09:40:38.751Z,538.1
2019-06-01T09:41:41.183Z,538.1
2019-06-01T09:42:43.052Z,537.6
2019-06-01T09:43:45.195Z,537.7
2019-06-01T09:44:47.617Z,537.7
2019-06-01T09:46:54.489Z,537.8
2019-06-01T09:47:57.480Z,537.8
2019-06-01T09:48:59.915Z,537.8
2019-06-01T09:50:02.340Z,537.8
2019-06-01T09:51:04.767Z,537.6
2019-06-01T09:52:07.214Z,537
2019-06-01T09:53:09.656Z,537.4
2019-06-01T09:54:12.080Z,537.4
2019-06-01T09:55:14.229Z,537.5
2019-06-01T09:56:16.087Z,537.9
2019-06-01T09:57:18.529Z,537.8
2019-06-01T09:58:20.443Z,537.9
2019-06-01T09:59:22.597Z,538
2019-06-01T10:00:24.759Z,537.8
2019-06-01T10:01:27.999Z,537.9
2019-06-01T10:02:34.104Z,538.1
2019-06-01T10:03:39.204Z,537.8
2019-06-01T10:04:41.624Z,536.9
2019-06-01T10:05:58.410Z,537.2
2019-06-01T10:06:49.583Z,537.5
2019-06-01T10:07:52.017Z,537.6
2019-06-01T10:08:54.179Z,537.6
2019-06-01T10:09:56.061Z,537.7
2019-06-01T10:10:58.481Z,537.7
2019-06-01T10:12:00.637Z,537.5
2019-06-01T10:13:02.794Z,537.7
2019-06-01T10:14:05.234Z,537.7
2019-06-01T10:15:07.301Z,537.7
2019-06-01T10:16:09.742Z,537.2
2019-06-01T10:17:11.922Z,537.2
2019-06-01T10:18:14.080Z,537.7
2019-06-01T10:19:16.245Z,537.8
2019-06-01T10:20:17.843Z,537.5
2019-06-01T10:21:20.342Z,537.5
2019-06-01T10:22:22.618Z,538.6
2019-06-01T10:23:25.240Z,538.1
2019-06-01T10:24:27.752Z,538.3
2019-06-01T10:25:34.921Z,538.8
2019-06-01T10:26:41.831Z,538.7
2019-06-01T10:27:44.906Z,539.2
2019-06-01T10:28:47.105Z,538.7
2019-06-01T10:29:48.698Z,538.8
2019-06-01T10:30:50.842Z,538.4
2019-06-01T10:31:52.987Z,538.5
2019-06-01T10:32:55.415Z,538.6
2019-06-01T10:33:57.979Z,539.2
2019-06-01T10:35:00.445Z,538.5
2019-06-01T10:37:07.855Z,539
2019-06-01T10:38:10.021Z,538.9
2019-06-01T10:39:12.454Z,538.8
2019-06-01T10:40:14.895Z,539.1
2019-06-01T10:41:17.335Z,539
2019-06-01T10:42:19.784Z,538.7
2019-06-01T10:43:21.987Z,538.9
2019-06-01T10:44:24.439Z,538.9
2019-06-01T10:45:26.665Z,538.6
2019-06-01T10:46:28.879Z,538.8
2019-06-01T10:47:33.741Z,538.9
2019-06-01T10:48:40.092Z,538.4
2019-06-01T10:49:43.585Z,538.4
2019-06-01T10:50:46.015Z,538.8
2019-06-01T10:51:48.183Z,539.1
2019-06-01T10:52:50.625Z,539.3
2019-06-01T10:53:52.812Z,539.3
2019-06-01T10:54:55.240Z,539.5
2019-06-01T10:55:57.402Z,539.4
2019-06-01T10:56:59.549Z,539.9
2019-06-01T10:58:02.237Z,539.4
2019-06-01T10:59:04.685Z,539
2019-06-01T11:00:07.073Z,539.2
2019-06-01T11:01:09.228Z,539.3
2019-06-01T11:02:12.264Z,539.3
2019-06-01T11:03:14.696Z,539.3
2019-06-01T11:04:16.857Z,539.5
2019-06-01T11:05:19.348Z,539.3
2019-06-01T11:07:26.764Z,539.3
2019-06-01T11:08:29.193Z,539.8
2019-06-01T11:09:31.119Z,539.5
2019-06-01T11:10:36.857Z,539.9
2019-06-01T11:11:41.704Z,539.8
2019-06-01T11:12:45.064Z,540.1
2019-06-01T11:13:47.516Z,540
2019-06-01T11:14:49.400Z,540.5
2019-06-01T11:15:51.567Z,540.2
2019-06-01T11:17:58.980Z,541
2019-06-01T11:19:01.147Z,540.6
2019-06-01T11:20:03.318Z,540.4
2019-06-01T11:21:05.486Z,540.1
2019-06-01T11:22:07.643Z,540.2
2019-06-01T11:23:10.084Z,540.3
2019-06-01T11:24:12.765Z,540.3
2019-06-01T11:25:15.243Z,540.4
2019-06-01T11:26:17.391Z,540.1
2019-06-01T11:27:19.286Z,540.3
2019-06-01T11:28:21.483Z,540.6
2019-06-01T11:29:23.756Z,540.3
2019-06-01T11:30:25.913Z,540.5
2019-06-01T11:31:28.370Z,541.1
2019-06-01T11:32:30.826Z,541.1
2019-06-01T11:33:34.320Z,540.6
2019-06-01T11:34:44.409Z,541.4
2019-06-01T11:35:47.360Z,541
2019-06-01T11:37:54.773Z,541.6
2019-06-01T11:38:56.676Z,541.6
2019-06-01T11:39:58.547Z,542
2019-06-01T11:41:00.691Z,542
2019-06-01T11:42:03.135Z,542.1
2019-06-01T11:43:05.047Z,541.7
2019-06-01T11:44:07.219Z,542.1
2019-06-01T11:45:09.641Z,541.7
2019-06-01T11:46:11.782Z,542.1
2019-06-01T11:47:13.961Z,542.3
2019-06-01T11:48:16.386Z,542.4
2019-06-01T11:50:23.545Z,542.7
2019-06-01T11:51:25.973Z,542.5
2019-06-01T11:52:27.867Z,543.1
2019-06-01T11:53:30.028Z,542.9
2019-06-01T11:54:32.462Z,543.5
2019-06-01T11:55:37.030Z,543.7
2019-06-01T11:56:41.844Z,543.4
2019-06-01T11:57:46.838Z,543.8
2019-06-01T11:58:49.274Z,543.9
2019-06-01T11:59:51.705Z,544
2019-06-01T12:00:54.148Z,543.7
2019-06-01T12:01:56.592Z,544
2019-06-01T12:02:58.778Z,544.1
2019-06-01T12:04:00.643Z,544.4
2019-06-01T12:05:03.073Z,544.2
2019-06-01T12:06:05.504Z,544.2
2019-06-01T12:08:12.931Z,544.4
2019-06-01T12:09:15.362Z,544.1
2019-06-01T12:10:17.804Z,544.3
2019-06-01T12:11:20.242Z,544.4
2019-06-01T12:12:22.689Z,544.1
2019-06-01T12:13:24.854Z,543.8
2019-06-01T12:14:27.284Z,543.8
2019-06-01T12:15:29.736Z,544.2
2019-06-01T12:16:32.216Z,544.7
2019-06-01T12:17:34.641Z,544.4
2019-06-01T12:18:40.581Z,544.7
2019-06-01T12:19:45.264Z,544.4
2019-06-01T12:20:48.546Z,544.6
2019-06-01T12:21:50.729Z,544.1
2019-06-01T12:22:52.880Z,544.3
2019-06-01T12:23:55.029Z,544.5
2019-06-01T12:24:57.165Z,544.5
2019-06-01T12:25:59.335Z,545.3
2019-06-01T12:27:01.761Z,545.2
2019-06-01T12:28:04.183Z,544.9
2019-06-01T12:29:06.620Z,544.7
2019-06-01T12:30:09.051Z,545.1
2019-06-01T12:31:11.471Z,545.3
2019-06-01T12:32:13.908Z,545.4
2019-06-01T12:33:16.332Z,545.5
2019-06-01T12:34:18.795Z,545.8
2019-06-01T12:35:20.982Z,545.7
2019-06-01T12:36:23.486Z,545.9
2019-06-01T12:38:30.346Z,546.1
2019-06-01T12:39:32.560Z,546.2
2019-06-01T12:40:34.983Z,546.1
2019-06-01T12:41:37.403Z,545.9
2019-06-01T12:42:43.912Z,545.9
2019-06-01T12:43:48.740Z,546
2019-06-01T12:44:52.482Z,546.1
2019-06-01T12:46:59.897Z,546.2
2019-06-01T12:48:02.366Z,546.4
2019-06-01T12:49:04.831Z,546.8
2019-06-01T12:50:07.410Z,546.6
2019-06-01T12:51:09.905Z,547.1
2019-06-01T12:52:12.404Z,547.1
2019-06-01T12:53:14.832Z,546.8
2019-06-01T12:54:17.346Z,547
2019-06-01T12:55:19.815Z,547.2
2019-06-01T12:56:22.273Z,547.7
2019-06-01T12:57:24.722Z,547.6
2019-06-01T12:58:26.818Z,547.6
2019-06-01T12:59:29.267Z,547.3
2019-06-01T13:00:30.876Z,547.4
2019-06-01T13:01:33.303Z,547.1
2019-06-01T13:02:35.746Z,547.6
2019-06-01T13:03:38.220Z,547.4
2019-06-01T13:04:45.274Z,547.6
2019-06-01T13:05:49.845Z,547.5
2019-06-01T13:09:02.326Z,548.3
2019-06-01T13:10:04.760Z,548.3
2019-06-01T13:11:07.197Z,548.2
2019-06-01T13:12:09.356Z,548.3
2019-06-01T13:13:11.865Z,548.4
2019-06-01T13:14:14.292Z,548.3
2019-06-01T13:15:16.452Z,548.6
2019-06-01T13:16:18.595Z,548.8
2019-06-01T13:17:21.033Z,548.6
2019-06-01T13:18:22.652Z,548.3
2019-06-01T13:19:24.813Z,548.5
2019-06-01T13:20:27.010Z,548.9
2019-06-01T13:21:29.785Z,549.2
2019-06-01T13:22:31.922Z,548.3
2019-06-01T13:23:34.086Z,549
2019-06-01T13:24:36.512Z,548.8
2019-06-01T13:25:38.660Z,549.6
2019-06-01T13:26:44.195Z,549.6
2019-06-01T13:27:53.014Z,550
2019-06-01T13:28:55.446Z,549.8
2019-06-01T13:29:57.606Z,549.7
2019-06-01T13:31:00.355Z,550.2
2019-06-01T13:32:01.951Z,549.9
2019-06-01T13:33:04.113Z,550.2
2019-06-01T13:34:06.553Z,550.3
2019-06-01T13:35:08.728Z,549.9
2019-06-01T13:36:11.152Z,550.4
2019-06-01T13:37:13.592Z,550
2019-06-01T13:38:16.016Z,550.2
2019-06-01T13:39:18.455Z,550.3
2019-06-01T13:40:20.387Z,550.2
2019-06-01T13:41:22.806Z,550.7
2019-06-01T13:42:25.224Z,551.1
2019-06-01T13:43:27.383Z,551.2
2019-06-01T13:44:29.802Z,551.4
2019-06-01T13:45:32.034Z,551
2019-06-01T13:46:34.214Z,551.3
2019-06-01T13:47:36.662Z,551.4
2019-06-01T13:48:38.814Z,551.5
2019-06-01T13:49:40.986Z,551.8
2019-06-01T13:50:44.283Z,551
2019-06-01T13:51:50.903Z,551.1
2019-06-01T13:52:55.189Z,551.1
2019-06-01T13:53:57.096Z,551.1
2019-06-01T13:54:59.246Z,551.4
2019-06-01T13:56:01.692Z,552.1
2019-06-01T13:57:04.103Z,552.1
2019-06-01T13:58:06.550Z,552.5
2019-06-01T13:59:08.725Z,552.6
2019-06-01T14:01:17.598Z,553.1
2019-06-01T14:02:19.935Z,553.4
2019-06-01T14:03:22.096Z,553.3